createdAt,value
2023-02-01T00:00:04.478Z,1012.7
2023-02-01T00:01:04.447Z,1012.7
2023-02-01T00:02:04.481Z,1012.7
2023-02-01T00:03:04.495Z,1012.7
2023-02-01T00:04:04.480Z,1012.7
2023-02-01T00:05:04.450Z,1012.8
2023-02-01T00:06:04.461Z,1012.7
2023-02-01T00:07:04.466Z,1012.8
2023-02-01T00:08:04.462Z,1012.7
2023-02-01T00:10:36.760Z,1012.6
2023-02-01T00:11:04.148Z,1012.6
2023-02-01T00:12:04.068Z,1012.6
2023-02-01T00:13:04.111Z,1012.6
2023-02-01T00:14:04.080Z,1012.6
2023-02-01T00:15:04.165Z,1012.6
2023-02-01T00:16:04.193Z,1012.6
2023-02-01T00:17:04.109Z,1012.6
2023-02-01T00:18:04.077Z,1012.6
2023-02-01T00:19:04.114Z,1012.6
2023-02-01T00:20:04.139Z,1012.6
2023-02-01T00:21:04.159Z,1012.7
2023-02-01T00:22:04.088Z,1012.6
2023-02-01T00:23:04.103Z,1012.6
2023-02-01T00:24:04.090Z,1012.6
2023-02-01T00:25:04.104Z,1012.6
2023-02-01T00:26:04.108Z,1012.6
2023-02-01T00:27:04.136Z,1012.6
2023-02-01T00:28:04.074Z,1012.5
2023-02-01T00:29:04.115Z,1012.5
2023-02-01T00:30:04.105Z,1012.5
2023-02-01T00:31:04.223Z,1012.5
2023-02-01T00:32:04.154Z,1012.5
2023-02-01T00:33:04.143Z,1012.5
2023-02-01T00:34:04.075Z,1012.5
2023-02-01T00:35:04.112Z,1012.5
2023-02-01T00:36:04.112Z,1012.5
2023-02-01T00:37:04.107Z,1012.5
2023-02-01T00:38:04.085Z,1012.5
2023-02-01T00:39:04.139Z,1012.5
2023-02-01T00:40:04.090Z,1012.5
2023-02-01T00:41:04.124Z,1012.5
2023-02-01T00:42:04.081Z,1012.5
2023-02-01T00:43:04.119Z,1012.5
2023-02-01T00:44:04.189Z,1012.5
2023-02-01T00:45:04.281Z,1012.5
2023-02-01T00:46:04.208Z,1012.5
2023-02-01T00:47:04.125Z,1012.5
2023-02-01T00:48:04.082Z,1012.5
2023-02-01T00:49:04.118Z,1012.5
2023-02-01T00:50:04.088Z,1012.5
2023-02-01T00:51:04.145Z,1012.5
2023-02-01T00:52:04.087Z,1012.6
2023-02-01T00:53:04.128Z,1012.5
2023-02-01T00:54:06.430Z,1012.6
2023-02-01T00:55:04.121Z,1012.6
2023-02-01T00:56:04.217Z,1012.6
2023-02-01T00:57:04.263Z,1012.6
2023-02-01T00:58:04.153Z,1012.6
2023-02-01T00:59:04.244Z,1012.6
2023-02-01T01:00:04.225Z,1012.5
2023-02-01T01:01:04.326Z,1012.6
2023-02-01T01:02:04.277Z,1012.5
2023-02-01T01:03:04.285Z,1012.6
2023-02-01T01:04:04.220Z,1012.6
2023-02-01T01:05:04.300Z,1012.5
2023-02-01T01:06:14.488Z,1012.5
2023-02-01T01:07:55.400Z,1012.5
2023-02-01T01:08:04.634Z,1012.5
2023-02-01T01:09:04.658Z,1012.5
2023-02-01T01:10:04.663Z,1012.4
2023-02-01T01:11:04.965Z,1012.4
2023-02-01T01:12:04.669Z,1012.4
2023-02-01T01:13:04.624Z,1012.4
2023-02-01T01:14:04.645Z,1012.4
2023-02-01T01:15:04.676Z,1012.4
2023-02-01T01:16:04.740Z,1012.4
2023-02-01T01:17:04.618Z,1012.4
2023-02-01T01:18:04.641Z,1012.4
2023-02-01T01:19:04.598Z,1012.4
2023-02-01T01:20:04.675Z,1012.4
2023-02-01T01:21:04.644Z,1012.4
2023-02-01T01:22:04.685Z,1012.4
2023-02-01T01:23:04.588Z,1012.5
2023-02-01T01:24:04.651Z,1012.4
2023-02-01T01:25:04.642Z,1012.4
2023-02-01T01:26:06.230Z,1012.4
2023-02-01T01:27:05.163Z,1012.5
2023-02-01T01:28:05.583Z,1012.4
2023-02-01T01:29:04.658Z,1012.4
2023-02-01T01:30:04.666Z,1012.4
2023-02-01T01:31:04.722Z,1012.4
2023-02-01T01:32:04.712Z,1012.4
2023-02-01T01:33:04.602Z,1012.4
2023-02-01T01:34:04.686Z,1012.3
2023-02-01T01:35:04.599Z,1012.3
2023-02-01T01:36:04.550Z,1012.3
2023-02-01T01:37:04.520Z,1012.3
2023-02-01T01:38:04.594Z,1012.3
2023-02-01T01:39:04.520Z,1012.3
2023-02-01T01:40:04.559Z,1012.3
2023-02-01T01:41:04.531Z,1012.3
2023-02-01T01:42:04.550Z,1012.2
2023-02-01T01:43:04.586Z,1012.3
2023-02-01T01:44:04.578Z,1012.3
2023-02-01T01:45:04.513Z,1012.2
2023-02-01T01:46:04.558Z,1012.2
2023-02-01T01:47:04.516Z,1012.2
2023-02-01T01:48:04.547Z,1012.2
2023-02-01T01:49:04.590Z,1012.2
2023-02-01T01:50:04.651Z,1012.2
2023-02-01T01:51:04.535Z,1012.2
2023-02-01T01:52:04.564Z,1012.2
2023-02-01T01:53:04.541Z,1012.2
2023-02-01T01:54:04.574Z,1012.2
2023-02-01T01:55:04.554Z,1012.2
2023-02-01T01:56:04.583Z,1012.2
2023-02-01T01:57:04.543Z,1012.2
2023-02-01T01:58:04.541Z,1012.2
2023-02-01T01:59:04.525Z,1012.2
2023-02-01T02:00:04.618Z,1012.2
2023-02-01T02:01:04.653Z,1012.2
2023-02-01T02:02:04.693Z,1012.2
2023-02-01T02:03:04.532Z,1012.2
2023-02-01T02:04:04.556Z,1012.2
2023-02-01T02:05:04.541Z,1012.1
2023-02-01T02:06:04.555Z,1012.1
2023-02-01T02:07:04.518Z,1012.1
2023-02-01T02:08:04.598Z,1012.1
2023-02-01T02:09:06.836Z,1012.1
2023-02-01T02:10:04.582Z,1012.1
2023-02-01T02:11:04.522Z,1012.0
2023-02-01T02:12:04.576Z,1012.0
2023-02-01T02:13:04.537Z,1012.0
2023-02-01T02:14:04.624Z,1012.0
2023-02-01T02:15:04.530Z,1012.0
2023-02-01T02:16:04.568Z,1012.0
2023-02-01T02:17:04.546Z,1012.0
2023-02-01T02:18:04.559Z,1012.0
2023-02-01T02:19:04.517Z,1012.0
2023-02-01T02:20:04.576Z,1012.0
2023-02-01T02:21:04.530Z,1012.0
2023-02-01T02:22:04.590Z,1012.0
2023-02-01T02:23:04.531Z,1012.0
2023-02-01T02:24:04.558Z,1011.9
2023-02-01T02:25:04.538Z,1011.9
2023-02-01T02:26:04.602Z,1011.9
2023-02-01T02:27:04.533Z,1011.8
2023-02-01T02:28:04.565Z,1011.8
2023-02-01T02:29:04.529Z,1011.8
2023-02-01T02:30:04.559Z,1011.8
2023-02-01T02:31:04.643Z,1011.8
2023-02-01T02:32:11.290Z,1011.8
2023-02-01T02:33:03.984Z,1011.8
2023-02-01T02:34:04.005Z,1011.7
2023-02-01T02:35:03.989Z,1011.7
2023-02-01T02:36:04.011Z,1011.6
2023-02-01T02:37:03.990Z,1011.6
2023-02-01T02:38:04.078Z,1011.5
2023-02-01T02:39:04.004Z,1011.5
2023-02-01T02:40:04.035Z,1011.5
2023-02-01T02:41:04.022Z,1011.5
2023-02-01T02:42:04.006Z,1011.5
2023-02-01T02:43:03.982Z,1011.5
2023-02-01T02:44:04.042Z,1011.5
2023-02-01T02:45:03.997Z,1011.6
2023-02-01T02:46:04.067Z,1011.6
2023-02-01T02:47:03.990Z,1011.6
2023-02-01T02:48:04.022Z,1011.6
2023-02-01T02:49:04.034Z,1011.6
2023-02-01T02:50:04.044Z,1011.6
2023-02-01T02:51:03.984Z,1011.6
2023-02-01T02:52:04.024Z,1011.6
2023-02-01T02:53:04.937Z,1011.6
2023-02-01T02:54:04.020Z,1011.6
2023-02-01T02:55:03.998Z,1011.6
2023-02-01T02:56:04.041Z,1011.6
2023-02-01T02:57:04.001Z,1011.6
2023-02-01T02:58:04.024Z,1011.6
2023-02-01T02:59:04.021Z,1011.7
2023-02-01T03:00:04.038Z,1011.5
2023-02-01T03:01:05.112Z,1011.6
2023-02-01T03:02:04.056Z,1011.7
2023-02-01T03:03:03.993Z,1011.6
2023-02-01T03:04:04.029Z,1011.6
2023-02-01T03:05:04.001Z,1011.6
2023-02-01T03:06:04.039Z,1011.7
2023-02-01T03:07:04.015Z,1011.6
2023-02-01T03:08:04.085Z,1011.7
2023-02-01T03:09:04.010Z,1011.7
2023-02-01T03:10:04.032Z,1011.7
2023-02-01T03:11:04.002Z,1011.7
2023-02-01T03:12:04.031Z,1011.7
2023-02-01T03:13:04.006Z,1011.6
2023-02-01T03:14:04.056Z,1011.6
2023-02-01T03:15:04.007Z,1011.6
2023-02-01T03:16:04.025Z,1011.6
2023-02-01T03:17:03.993Z,1011.6
2023-02-01T03:18:04.042Z,1011.6
2023-02-01T03:19:04.046Z,1011.6
2023-02-01T03:20:04.055Z,1011.5
2023-02-01T03:21:03.994Z,1011.5
2023-02-01T03:22:04.018Z,1011.6
2023-02-01T03:23:04.003Z,1011.6
2023-02-01T03:24:04.046Z,1011.5
2023-02-01T03:25:04.007Z,1011.6
2023-02-01T03:26:04.066Z,1011.6
2023-02-01T03:27:03.993Z,1011.6
2023-02-01T03:28:04.122Z,1011.6
2023-02-01T03:29:04.053Z,1011.5
2023-02-01T03:30:04.031Z,1011.5
2023-02-01T03:31:04.054Z,1011.5
2023-02-01T03:32:04.131Z,1011.5
2023-02-01T03:33:03.997Z,1011.5
2023-02-01T03:34:04.036Z,1011.5
2023-02-01T03:35:04.008Z,1011.5
2023-02-01T03:36:04.046Z,1011.5
2023-02-01T03:37:04.022Z,1011.5
2023-02-01T03:38:04.079Z,1011.5
2023-02-01T03:39:04.008Z,1011.5
2023-02-01T03:40:04.026Z,1011.6
2023-02-01T03:41:04.005Z,1011.5
2023-02-01T03:42:04.047Z,1011.6
2023-02-01T03:43:04.007Z,1011.6
2023-02-01T03:44:04.083Z,1011.6
2023-02-01T03:45:04.024Z,1011.6
2023-02-01T03:46:04.141Z,1011.6
2023-02-01T03:47:04.040Z,1011.7
2023-02-01T03:48:04.038Z,1011.7
2023-02-01T03:49:33.073Z,1011.7
2023-02-01T03:50:04.114Z,1011.7
2023-02-01T03:51:04.026Z,1011.7
2023-02-01T03:52:04.080Z,1011.7
2023-02-01T03:53:04.009Z,1011.7
2023-02-01T03:54:04.091Z,1011.7
2023-02-01T03:55:04.005Z,1011.7
2023-02-01T03:56:04.083Z,1011.8
2023-02-01T03:57:04.005Z,1011.8
2023-02-01T03:58:04.053Z,1011.8
2023-02-01T03:59:04.003Z,1011.8
2023-02-01T04:00:04.084Z,1011.8
2023-02-01T04:01:04.050Z,1011.8
2023-02-01T04:02:04.122Z,1011.8
2023-02-01T04:03:03.999Z,1011.8
2023-02-01T04:04:04.047Z,1011.8
2023-02-01T04:05:04.027Z,1011.8
2023-02-01T04:06:04.030Z,1011.8
2023-02-01T04:07:04.012Z,1011.8
2023-02-01T04:08:04.088Z,1011.9
2023-02-01T04:09:04.039Z,1011.8
2023-02-01T04:10:04.039Z,1011.8
2023-02-01T04:11:04.027Z,1011.8
2023-02-01T04:12:04.044Z,1011.8
2023-02-01T04:13:04.053Z,1011.8
2023-02-01T04:14:04.070Z,1011.8
2023-02-01T04:15:04.069Z,1011.8
2023-02-01T04:16:04.108Z,1011.8
2023-02-01T04:17:04.010Z,1011.8
2023-02-01T04:18:04.048Z,1011.9
2023-02-01T04:19:04.025Z,1011.9
2023-02-01T04:20:04.077Z,1011.9
2023-02-01T04:21:04.012Z,1011.9
2023-02-01T04:22:04.043Z,1011.9
2023-02-01T04:23:04.022Z,1011.9
2023-02-01T04:24:04.114Z,1011.9
2023-02-01T04:25:04.033Z,1011.9
2023-02-01T04:26:04.068Z,1011.9
2023-02-01T04:27:04.013Z,1011.9
2023-02-01T04:28:04.056Z,1011.9
2023-02-01T04:29:04.036Z,1011.9
2023-02-01T04:30:04.062Z,1011.9
2023-02-01T04:31:04.132Z,1011.9
2023-02-01T04:32:04.311Z,1011.9
2023-02-01T04:33:04.018Z,1011.9
2023-02-01T04:34:04.051Z,1011.9
2023-02-01T04:35:04.009Z,1011.9
2023-02-01T04:36:05.011Z,1011.9
2023-02-01T04:37:04.013Z,1011.9
2023-02-01T04:38:04.092Z,1011.9
2023-02-01T04:39:04.033Z,1011.8
2023-02-01T04:40:04.029Z,1011.8
2023-02-01T04:41:04.058Z,1011.9
2023-02-01T04:42:04.027Z,1011.9
2023-02-01T04:43:04.043Z,1011.8
2023-02-01T04:44:04.054Z,1011.8
2023-02-01T04:45:04.048Z,1011.9
2023-02-01T04:46:04.056Z,1011.8
2023-02-01T04:47:04.077Z,1011.9
2023-02-01T04:48:04.038Z,1011.8
2023-02-01T04:49:04.113Z,1011.8
2023-02-01T04:50:04.045Z,1011.8
2023-02-01T04:51:04.045Z,1011.8
2023-02-01T04:52:04.283Z,1011.8
2023-02-01T04:53:04.054Z,1011.8
2023-02-01T04:54:04.020Z,1011.7
2023-02-01T04:55:04.076Z,1011.7
2023-02-01T04:56:04.060Z,1011.8
2023-02-01T04:57:04.037Z,1011.8
2023-02-01T04:58:04.033Z,1011.7
2023-02-01T04:59:04.042Z,1011.7
2023-02-01T05:00:04.028Z,1011.6
2023-02-01T05:01:04.076Z,1011.6
2023-02-01T05:02:04.059Z,1011.7
2023-02-01T05:03:04.063Z,1011.8
2023-02-01T05:04:04.026Z,1011.8
2023-02-01T05:05:04.049Z,1011.9
2023-02-01T05:07:01.502Z,1011.9
2023-02-01T05:07:05.579Z,1011.9
2023-02-01T05:08:04.017Z,1011.9
2023-02-01T05:09:04.059Z,1011.9
2023-02-01T05:10:04.031Z,1011.9
2023-02-01T05:11:04.055Z,1012.0
2023-02-01T05:12:04.023Z,1012.0
2023-02-01T05:13:04.086Z,1011.9
2023-02-01T05:14:04.052Z,1011.8
2023-02-01T05:15:04.102Z,1011.7
2023-02-01T05:16:04.063Z,1011.7
2023-02-01T05:17:04.059Z,1011.7
2023-02-01T05:18:04.026Z,1011.8
2023-02-01T05:19:04.079Z,1011.8
2023-02-01T05:20:04.032Z,1011.8
2023-02-01T05:21:04.090Z,1011.8
2023-02-01T05:22:04.103Z,1011.9
2023-02-01T05:23:04.058Z,1011.8
2023-02-01T05:24:04.027Z,1011.8
2023-02-01T05:25:04.096Z,1011.8
2023-02-01T05:26:04.283Z,1011.8
2023-02-01T05:27:04.048Z,1011.8
2023-02-01T05:28:04.026Z,1011.7
2023-02-01T05:29:04.047Z,1011.7
2023-02-01T05:30:04.038Z,1011.7
2023-02-01T05:31:04.134Z,1011.7
2023-02-01T05:32:20.781Z,1011.8
2023-02-01T05:33:04.061Z,1011.8
2023-02-01T05:34:04.027Z,1011.7
2023-02-01T05:35:04.138Z,1011.7
2023-02-01T05:36:06.582Z,1011.6
2023-02-01T05:37:04.151Z,1011.6
2023-02-01T05:38:04.033Z,1011.5
2023-02-01T05:39:04.063Z,1011.5
2023-02-01T05:40:04.040Z,1011.5
2023-02-01T05:41:04.086Z,1011.5
2023-02-01T05:42:04.044Z,1011.5
2023-02-01T05:43:04.097Z,1011.5
2023-02-01T05:44:04.034Z,1011.5
2023-02-01T05:45:04.091Z,1011.5
2023-02-01T05:46:04.075Z,1011.5
2023-02-01T05:47:04.074Z,1011.5
2023-02-01T05:48:04.065Z,1011.5
2023-02-01T05:49:04.082Z,1011.5
2023-02-01T05:50:04.037Z,1011.5
2023-02-01T05:51:04.271Z,1011.4
2023-02-01T05:52:04.120Z,1011.4
2023-02-01T05:53:04.074Z,1011.4
2023-02-01T05:54:04.069Z,1011.4
2023-02-01T05:55:04.114Z,1011.4
2023-02-01T05:56:04.056Z,1011.3
2023-02-01T05:57:04.080Z,1011.3
2023-02-01T05:58:04.055Z,1011.3
2023-02-01T05:59:10.609Z,1011.3
2023-02-01T06:00:04.291Z,1011.5
2023-02-01T06:01:04.313Z,1011.6
2023-02-01T06:02:04.320Z,1011.6
2023-02-01T06:03:04.342Z,1011.6
2023-02-01T06:04:04.302Z,1011.6
2023-02-01T06:05:04.289Z,1011.7
2023-02-01T06:06:05.254Z,1011.7
2023-02-01T06:07:04.307Z,1011.6
2023-02-01T06:08:04.306Z,1011.6
2023-02-01T06:09:04.261Z,1011.7
2023-02-01T06:10:04.329Z,1011.6
2023-02-01T06:11:04.279Z,1011.6
2023-02-01T06:12:04.309Z,1011.6
2023-02-01T06:13:04.290Z,1011.6
2023-02-01T06:14:04.296Z,1011.6
2023-02-01T06:15:04.275Z,1011.7
2023-02-01T06:16:04.558Z,1011.6
2023-02-01T06:17:04.260Z,1011.7
2023-02-01T06:18:04.327Z,1011.7
2023-02-01T06:19:04.320Z,1011.6
2023-02-01T06:20:04.281Z,1011.6
2023-02-01T06:21:04.271Z,1011.6
2023-02-01T06:22:04.286Z,1011.5
2023-02-01T06:23:04.254Z,1011.6
2023-02-01T06:24:04.304Z,1011.5
2023-02-01T06:25:04.267Z,1011.6
2023-02-01T06:26:04.313Z,1011.5
2023-02-01T06:27:04.262Z,1011.5
2023-02-01T06:28:04.289Z,1011.5
2023-02-01T06:29:04.298Z,1011.6
2023-02-01T06:30:04.280Z,1011.5
2023-02-01T06:31:06.524Z,1011.5
2023-02-01T06:32:04.398Z,1011.5
2023-02-01T06:33:04.268Z,1011.5
2023-02-01T06:34:04.298Z,1011.6
2023-02-01T06:35:04.300Z,1011.6
2023-02-01T06:36:04.302Z,1011.5
2023-02-01T06:37:04.274Z,1011.5
2023-02-01T06:38:04.355Z,1011.6
2023-02-01T06:39:04.277Z,1011.6
2023-02-01T06:40:04.297Z,1011.7
2023-02-01T06:41:04.326Z,1011.7
2023-02-01T06:42:04.304Z,1011.7
2023-02-01T06:43:04.269Z,1011.7
2023-02-01T06:44:04.327Z,1011.6
2023-02-01T06:45:04.274Z,1011.6
2023-02-01T06:47:39.929Z,1011.6
2023-02-01T06:48:04.545Z,1011.6
2023-02-01T06:49:03.899Z,1011.7
2023-02-01T06:50:03.874Z,1011.6
2023-02-01T06:51:03.886Z,1011.7
2023-02-01T06:52:03.869Z,1011.7
2023-02-01T06:53:03.930Z,1011.7
2023-02-01T06:54:10.610Z,1011.7
2023-02-01T06:55:05.044Z,1011.8
2023-02-01T06:56:04.341Z,1011.8
2023-02-01T06:57:04.311Z,1011.8
2023-02-01T06:58:04.344Z,1011.8
2023-02-01T06:59:04.335Z,1011.8
2023-02-01T07:00:04.363Z,1011.8
2023-02-01T07:01:04.380Z,1011.8
2023-02-01T07:02:04.420Z,1011.8
2023-02-01T07:03:11.031Z,1011.8
2023-02-01T07:04:03.762Z,1011.7
2023-02-01T07:05:10.619Z,1011.7
2023-02-01T07:06:04.180Z,1011.7
2023-02-01T07:07:04.149Z,1011.8
2023-02-01T07:08:04.192Z,1011.8
2023-02-01T07:09:04.154Z,1011.8
2023-02-01T07:10:04.215Z,1011.8
2023-02-01T07:11:04.218Z,1011.8
2023-02-01T07:12:04.293Z,1011.8
2023-02-01T07:13:04.150Z,1011.8
2023-02-01T07:14:04.188Z,1011.8
2023-02-01T07:15:04.159Z,1011.8
2023-02-01T07:16:04.225Z,1011.8
2023-02-01T07:17:04.228Z,1011.8
2023-02-01T07:18:04.234Z,1011.8
2023-02-01T07:19:04.164Z,1011.8
2023-02-01T07:20:04.198Z,1011.8
2023-02-01T07:21:04.161Z,1011.7
2023-02-01T07:22:04.193Z,1011.7
2023-02-01T07:23:04.190Z,1011.7
2023-02-01T07:24:04.211Z,1011.7
2023-02-01T07:25:06.536Z,1011.7
2023-02-01T07:26:04.219Z,1011.7
2023-02-01T07:27:05.237Z,1011.6
2023-02-01T07:28:04.216Z,1011.6
2023-02-01T07:29:05.104Z,1011.6
2023-02-01T07:30:04.192Z,1011.7
2023-02-01T07:31:04.208Z,1011.7
2023-02-01T07:32:05.115Z,1011.7
2023-02-01T07:33:04.164Z,1011.7
2023-02-01T07:34:04.213Z,1011.8
2023-02-01T07:35:04.258Z,1011.8
2023-02-01T07:36:04.225Z,1011.8
2023-02-01T07:37:04.180Z,1011.8
2023-02-01T07:38:04.218Z,1011.8
2023-02-01T07:39:04.177Z,1011.8
2023-02-01T07:40:04.209Z,1011.8
2023-02-01T07:41:04.201Z,1011.8
2023-02-01T07:42:04.203Z,1011.8
2023-02-01T07:43:04.175Z,1011.8
2023-02-01T07:44:04.209Z,1011.8
2023-02-01T07:45:20.017Z,1011.8
2023-02-01T07:46:04.417Z,1011.9
2023-02-01T07:47:04.214Z,1011.9
2023-02-01T07:48:04.227Z,1011.9
2023-02-01T07:49:04.190Z,1011.9
2023-02-01T07:50:04.211Z,1012.0
2023-02-01T07:51:04.200Z,1011.9
2023-02-01T07:52:04.193Z,1012.0
2023-02-01T07:53:04.304Z,1012.0
2023-02-01T07:54:04.216Z,1012.0
2023-02-01T07:55:04.173Z,1012.0
2023-02-01T07:56:04.254Z,1012.1
2023-02-01T07:58:36.623Z,1012.1
2023-02-01T07:59:06.477Z,1012.1
2023-02-01T08:00:04.440Z,1012.2
2023-02-01T08:01:04.358Z,1012.2
2023-02-01T08:02:04.286Z,1012.3
2023-02-01T08:03:04.323Z,1012.3
2023-02-01T08:04:04.322Z,1012.3
2023-02-01T08:05:04.317Z,1012.3
2023-02-01T08:06:04.271Z,1012.3
2023-02-01T08:07:04.319Z,1012.3
2023-02-01T08:08:04.294Z,1012.4
2023-02-01T08:09:04.373Z,1012.3
2023-02-01T08:10:04.317Z,1012.4
2023-02-01T08:11:04.317Z,1012.4
2023-02-01T08:12:04.277Z,1012.4
2023-02-01T08:13:04.353Z,1012.3
2023-02-01T08:14:04.302Z,1012.3
2023-02-01T08:15:04.315Z,1012.3
2023-02-01T08:16:04.317Z,1012.3
2023-02-01T08:17:04.312Z,1012.3
2023-02-01T08:18:04.305Z,1012.3
2023-02-01T08:19:04.320Z,1012.3
2023-02-01T08:20:04.290Z,1012.4
2023-02-01T08:21:04.327Z,1012.4
2023-02-01T08:22:04.373Z,1012.4
2023-02-01T08:23:04.342Z,1012.4
2023-02-01T08:24:04.292Z,1012.4
2023-02-01T08:25:04.315Z,1012.4
2023-02-01T08:26:04.295Z,1012.4
2023-02-01T08:27:04.331Z,1012.3
2023-02-01T08:28:04.343Z,1012.4
2023-02-01T08:29:04.346Z,1012.4
2023-02-01T08:30:04.307Z,1012.5
2023-02-01T08:31:04.464Z,1012.5
2023-02-01T08:32:04.359Z,1012.5
2023-02-01T08:33:04.337Z,1012.5
2023-02-01T08:34:04.349Z,1012.5
2023-02-01T08:35:04.326Z,1012.5
2023-02-01T08:36:04.308Z,1012.5
2023-02-01T08:37:04.340Z,1012.5
2023-02-01T08:38:04.293Z,1012.5
2023-02-01T08:39:04.333Z,1012.5
2023-02-01T08:40:04.335Z,1012.4
2023-02-01T08:41:04.316Z,1012.5
2023-02-01T08:42:04.296Z,1012.5
2023-02-01T08:43:04.345Z,1012.4
2023-02-01T08:44:04.313Z,1012.4
2023-02-01T08:45:04.361Z,1012.4
2023-02-01T08:46:04.423Z,1012.4
2023-02-01T08:47:04.331Z,1012.4
2023-02-01T08:48:04.315Z,1012.4
2023-02-01T08:49:04.318Z,1012.4
2023-02-01T08:50:04.322Z,1012.5
2023-02-01T08:52:38.199Z,1012.5
2023-02-01T08:53:04.428Z,1012.5
2023-02-01T08:54:04.471Z,1012.5
2023-02-01T08:55:04.440Z,1012.5
2023-02-01T08:56:04.458Z,1012.5
2023-02-01T08:57:04.443Z,1012.5
2023-02-01T08:58:04.477Z,1012.5
2023-02-01T08:59:04.456Z,1012.5
2023-02-01T09:00:04.458Z,1012.5
2023-02-01T09:01:04.487Z,1012.5
2023-02-01T09:02:04.465Z,1012.5
2023-02-01T09:03:04.521Z,1012.5
2023-02-01T09:04:04.575Z,1012.5
2023-02-01T09:05:04.480Z,1012.5
2023-02-01T09:06:04.474Z,1012.4
2023-02-01T09:07:04.446Z,1012.5
2023-02-01T09:08:04.451Z,1012.5
2023-02-01T09:09:04.439Z,1012.5
2023-02-01T09:10:04.510Z,1012.5
2023-02-01T09:11:04.439Z,1012.5
2023-02-01T09:12:04.466Z,1012.5
2023-02-01T09:13:04.444Z,1012.5
2023-02-01T09:14:04.485Z,1012.6
2023-02-01T09:15:04.488Z,1012.6
2023-02-01T09:16:04.703Z,1012.5
2023-02-01T09:17:04.438Z,1012.5
2023-02-01T09:18:04.457Z,1012.4
2023-02-01T09:19:26.078Z,1012.4
2023-02-01T09:20:04.479Z,1012.4
2023-02-01T09:21:04.464Z,1012.5
2023-02-01T09:22:04.494Z,1012.5
2023-02-01T09:23:04.436Z,1012.5
2023-02-01T09:24:04.470Z,1012.5
2023-02-01T09:25:04.464Z,1012.5
2023-02-01T09:26:04.524Z,1012.5
2023-02-01T09:27:04.587Z,1012.5
2023-02-01T09:28:04.500Z,1012.5
2023-02-01T09:29:04.501Z,1012.6
2023-02-01T09:30:04.479Z,1012.6
2023-02-01T09:31:04.514Z,1012.7
2023-02-01T09:32:04.945Z,1012.7
2023-02-01T09:33:04.457Z,1012.7
2023-02-01T09:34:04.542Z,1012.7
2023-02-01T09:35:04.459Z,1012.7
2023-02-01T09:36:04.468Z,1012.7
2023-02-01T09:37:05.368Z,1012.8
2023-02-01T09:38:11.305Z,1012.8
2023-02-01T09:39:04.104Z,1012.7
2023-02-01T09:40:04.094Z,1012.8
2023-02-01T09:41:10.755Z,1012.8
2023-02-01T09:42:04.440Z,1012.8
2023-02-01T09:43:04.456Z,1012.9
2023-02-01T09:44:04.436Z,1012.9
2023-02-01T09:45:04.475Z,1012.9
2023-02-01T09:46:04.523Z,1013.0
2023-02-01T09:47:04.474Z,1013.0
2023-02-01T09:48:04.459Z,1013.1
2023-02-01T09:49:04.491Z,1013.1
2023-02-01T09:50:04.455Z,1013.1
2023-02-01T09:51:04.479Z,1013.1
2023-02-01T09:52:04.500Z,1013.1
2023-02-01T09:53:04.487Z,1013.1
2023-02-01T09:54:04.441Z,1013.2
2023-02-01T09:55:04.516Z,1013.2
2023-02-01T09:56:04.458Z,1013.3
2023-02-01T09:57:04.479Z,1013.3
2023-02-01T09:58:04.497Z,1013.3
2023-02-01T09:59:04.465Z,1013.4
2023-02-01T10:00:04.450Z,1013.4
2023-02-01T10:01:04.537Z,1013.4
2023-02-01T10:02:04.456Z,1013.4
2023-02-01T10:03:04.471Z,1013.4
2023-02-01T10:04:04.488Z,1013.4
2023-02-01T10:05:04.496Z,1013.4
2023-02-01T10:06:04.447Z,1013.4
2023-02-01T10:07:04.501Z,1013.4
2023-02-01T10:08:04.476Z,1013.4
2023-02-01T10:09:04.475Z,1013.4
2023-02-01T10:10:04.488Z,1013.4
2023-02-01T10:11:04.480Z,1013.4
2023-02-01T10:12:04.455Z,1013.4
2023-02-01T10:13:04.470Z,1013.4
2023-02-01T10:14:04.451Z,1013.4
2023-02-01T10:15:04.479Z,1013.4
2023-02-01T10:16:04.546Z,1013.5
2023-02-01T10:17:04.619Z,1013.5
2023-02-01T10:18:04.453Z,1013.4
2023-02-01T10:19:04.482Z,1013.5
2023-02-01T10:20:04.449Z,1013.4
2023-02-01T10:21:04.476Z,1013.4
2023-02-01T10:22:04.471Z,1013.5
2023-02-01T10:23:26.890Z,1013.5
2023-02-01T10:24:16.065Z,1013.5
2023-02-01T10:25:04.510Z,1013.5
2023-02-01T10:26:04.469Z,1013.5
2023-02-01T10:27:04.589Z,1013.4
2023-02-01T10:28:04.510Z,1013.4
2023-02-01T10:29:04.496Z,1013.4
2023-02-01T10:30:04.492Z,1013.4
2023-02-01T10:31:04.567Z,1013.4
2023-02-01T10:32:04.498Z,1013.4
2023-02-01T10:33:04.532Z,1013.4
2023-02-01T10:34:04.479Z,1013.4
2023-02-01T10:35:04.643Z,1013.4
2023-02-01T10:36:04.463Z,1013.4
2023-02-01T10:37:04.485Z,1013.4
2023-02-01T10:38:04.461Z,1013.3
2023-02-01T10:39:04.498Z,1013.3
2023-02-01T10:40:04.820Z,1013.3
2023-02-01T10:41:04.526Z,1013.3
2023-02-01T10:42:04.503Z,1013.3
2023-02-01T10:43:04.485Z,1013.3
2023-02-01T10:44:04.477Z,1013.3
2023-02-01T10:45:04.523Z,1013.3
2023-02-01T10:46:04.533Z,1013.3
2023-02-01T10:47:04.495Z,1013.3
2023-02-01T10:48:04.465Z,1013.3
2023-02-01T10:49:04.512Z,1013.3
2023-02-01T10:50:04.457Z,1013.1
2023-02-01T10:51:04.541Z,1013.1
2023-02-01T10:52:04.536Z,1013.2
2023-02-01T10:53:04.500Z,1013.1
2023-02-01T10:54:04.463Z,1013.1
2023-02-01T10:55:04.509Z,1013.1
2023-02-01T10:56:04.541Z,1013.0
2023-02-01T10:57:04.520Z,1013.0
2023-02-01T10:58:04.529Z,1013.0
2023-02-01T10:59:04.516Z,1013.0
2023-02-01T11:00:04.488Z,1012.9
2023-02-01T11:01:25.926Z,1012.8
2023-02-01T11:02:04.701Z,1012.8
2023-02-01T11:03:04.601Z,1012.7
2023-02-01T11:04:04.515Z,1012.7
2023-02-01T11:05:04.519Z,1012.7
2023-02-01T11:06:04.471Z,1012.8
2023-02-01T11:07:04.489Z,1012.8
2023-02-01T11:08:04.474Z,1012.8
2023-02-01T11:09:04.507Z,1012.8
2023-02-01T11:10:11.690Z,1012.8
2023-02-01T11:11:04.407Z,1012.7
2023-02-01T11:12:04.563Z,1012.7
2023-02-01T11:13:04.400Z,1012.7
2023-02-01T11:14:04.397Z,1012.6
2023-02-01T11:15:04.383Z,1012.6
2023-02-01T11:16:04.402Z,1012.6
2023-02-01T11:17:04.477Z,1012.6
2023-02-01T11:18:04.552Z,1012.6
2023-02-01T11:19:04.422Z,1012.6
2023-02-01T11:20:04.420Z,1012.5
2023-02-01T11:21:04.389Z,1012.5
2023-02-01T11:22:04.399Z,1012.5
2023-02-01T11:23:04.557Z,1012.5
2023-02-01T11:24:04.451Z,1012.6
2023-02-01T11:25:04.387Z,1012.5
2023-02-01T11:26:04.389Z,1012.6
2023-02-01T11:27:06.818Z,1012.6
2023-02-01T11:28:05.235Z,1012.6
2023-02-01T11:29:04.438Z,1012.6
2023-02-01T11:30:04.377Z,1012.6
2023-02-01T11:31:04.545Z,1012.7
2023-02-01T11:32:04.436Z,1012.7
2023-02-01T11:33:06.475Z,1012.7
2023-02-01T11:34:04.804Z,1012.7
2023-02-01T11:35:05.001Z,1012.5
2023-02-01T11:36:04.526Z,1012.5
2023-02-01T11:37:04.447Z,1012.5
2023-02-01T11:38:04.403Z,1012.5
2023-02-01T11:39:05.082Z,1012.5
2023-02-01T11:40:04.452Z,1012.5
2023-02-01T11:41:04.452Z,1012.5
2023-02-01T11:42:04.391Z,1012.5
2023-02-01T11:43:04.416Z,1012.5
2023-02-01T11:44:04.941Z,1012.5
2023-02-01T11:45:06.059Z,1012.5
2023-02-01T11:46:04.402Z,1012.5
2023-02-01T11:47:04.772Z,1012.5
2023-02-01T11:48:04.422Z,1012.5
2023-02-01T11:49:06.405Z,1012.5
2023-02-01T11:50:04.416Z,1012.5
2023-02-01T11:51:05.812Z,1012.5
2023-02-01T11:52:04.385Z,1012.6
2023-02-01T11:53:04.552Z,1012.5
2023-02-01T11:54:04.388Z,1012.5
2023-02-01T11:55:04.452Z,1012.5
2023-02-01T11:56:04.398Z,1012.5
2023-02-01T11:57:05.879Z,1012.6
2023-02-01T11:58:30.881Z,1012.5
2023-02-01T11:59:04.610Z,1012.6
2023-02-01T12:00:04.566Z,1012.6
2023-02-01T12:01:04.869Z,1012.6
2023-02-01T12:02:04.691Z,1012.6
2023-02-01T12:03:04.858Z,1012.5
2023-02-01T12:04:04.596Z,1012.5
2023-02-01T12:05:05.511Z,1012.6
2023-02-01T12:06:04.587Z,1012.5
2023-02-01T12:07:04.566Z,1012.5
2023-02-01T12:08:04.682Z,1012.6
2023-02-01T12:09:04.606Z,1012.5
2023-02-01T12:10:04.618Z,1012.5
2023-02-01T12:11:04.605Z,1012.5
2023-02-01T12:12:04.574Z,1012.5
2023-02-01T12:13:04.574Z,1012.5
2023-02-01T12:14:04.607Z,1012.5
2023-02-01T12:15:04.621Z,1012.5
2023-02-01T12:16:04.624Z,1012.5
2023-02-01T12:17:04.559Z,1012.5
2023-02-01T12:18:04.611Z,1012.5
2023-02-01T12:19:04.557Z,1012.5
2023-02-01T12:20:04.741Z,1012.5
2023-02-01T12:21:04.593Z,1012.5
2023-02-01T12:22:04.606Z,1012.4
2023-02-01T12:23:04.599Z,1012.5
2023-02-01T12:24:04.641Z,1012.5
2023-02-01T12:25:04.571Z,1012.5
2023-02-01T12:26:04.609Z,1012.5
2023-02-01T12:27:04.597Z,1012.5
2023-02-01T12:28:04.604Z,1012.5
2023-02-01T12:29:04.563Z,1012.5
2023-02-01T12:30:04.608Z,1012.5
2023-02-01T12:31:04.595Z,1012.4
2023-02-01T12:32:04.703Z,1012.4